sensor_id;sensor_type;location;lat;lon;timestamp;P1;durP1;ratioP1;P2;durP2;ratioP2
37677;SDS011;23517;50.390;8.616;2023-07-13T00:01:52;3.47;;;1.00;;
37677;SDS011;23517;50.390;8.616;2023-07-13T00:04:20;5.00;;;1.15;;
37677;SDS011;23517;50.390;8.616;2023-07-13T00:06:49;1.98;;;0.90;;
37677;SDS011;23517;50.390;8.616;2023-07-13T00:09:17;4.65;;;1.13;;
37677;SDS011;23517;50.390;8.616;2023-07-13T00:11:45;4.32;;;1.00;;
37677;SDS011;23517;50.390;8.616;2023-07-13T00:14:17;2.58;;;1.00;;
37677;SDS011;23517;50.390;8.616;2023-07-13T00:16:44;4.20;;;1.20;;
37677;SDS011;23517;50.390;8.616;2023-07-13T00:19:12;1.85;;;0.90;;
37677;SDS011;23517;50.390;8.616;2023-07-13T00:21:40;2.15;;;0.90;;
37677;SDS011;23517;50.390;8.616;2023-07-13T00:24:08;4.47;;;1.00;;
37677;SDS011;23517;50.390;8.616;2023-07-13T00:26:39;4.00;;;0.75;;
37677;SDS011;23517;50.390;8.616;2023-07-13T00:29:06;3.10;;;0.90;;
37677;SDS011;23517;50.390;8.616;2023-07-13T00:31:35;3.55;;;1.20;;
37677;SDS011;23517;50.390;8.616;2023-07-13T00:34:02;3.63;;;0.98;;
37677;SDS011;23517;50.390;8.616;2023-07-13T00:36:29;7.28;;;0.93;;
37677;SDS011;23517;50.390;8.616;2023-07-13T00:38:56;4.68;;;0.85;;
37677;SDS011;23517;50.390;8.616;2023-07-13T00:41:24;3.50;;;0.90;;
37677;SDS011;23517;50.390;8.616;2023-07-13T00:43:50;3.20;;;1.05;;
37677;SDS011;23517;50.390;8.616;2023-07-13T00:46:19;5.10;;;1.20;;
37677;SDS011;23517;50.390;8.616;2023-07-13T00:48:49;2.40;;;0.82;;
37677;SDS011;23517;50.390;8.616;2023-07-13T00:51:18;3.05;;;0.77;;
37677;SDS011;23517;50.390;8.616;2023-07-13T00:53:52;6.32;;;0.95;;
37677;SDS011;23517;50.390;8.616;2023-07-13T00:56:20;4.32;;;1.10;;
37677;SDS011;23517;50.390;8.616;2023-07-13T00:58:47;4.20;;;1.00;;
37677;SDS011;23517;50.390;8.616;2023-07-13T01:01:14;6.32;;;1.17;;
37677;SDS011;23517;50.390;8.616;2023-07-13T01:03:41;5.72;;;1.20;;
37677;SDS011;23517;50.390;8.616;2023-07-13T01:06:08;3.55;;;1.05;;
37677;SDS011;23517;50.390;8.616;2023-07-13T01:08:36;2.53;;;0.90;;
37677;SDS011;23517;50.390;8.616;2023-07-13T01:11:02;4.30;;;1.20;;
37677;SDS011;23517;50.390;8.616;2023-07-13T01:13:29;5.80;;;1.10;;
37677;SDS011;23517;50.390;8.616;2023-07-13T01:15:56;6.00;;;1.15;;
37677;SDS011;23517;50.390;8.616;2023-07-13T01:18:30;4.18;;;1.02;;
37677;SDS011;23517;50.390;8.616;2023-07-13T01:21:03;5.90;;;1.23;;
37677;SDS011;23517;50.390;8.616;2023-07-13T01:23:31;2.08;;;0.80;;
37677;SDS011;23517;50.390;8.616;2023-07-13T01:25:59;4.55;;;0.90;;
37677;SDS011;23517;50.390;8.616;2023-07-13T01:28:26;5.35;;;1.20;;
37677;SDS011;23517;50.390;8.616;2023-07-13T01:30:55;5.32;;;1.15;;
37677;SDS011;23517;50.390;8.616;2023-07-13T01:33:23;4.25;;;1.10;;
37677;SDS011;23517;50.390;8.616;2023-07-13T01:35:50;4.95;;;0.93;;
37677;SDS011;23517;50.390;8.616;2023-07-13T01:38:19;5.03;;;1.00;;
37677;SDS011;23517;50.390;8.616;2023-07-13T01:40:48;1.83;;;0.70;;
37677;SDS011;23517;50.390;8.616;2023-07-13T01:43:17;4.10;;;0.93;;
37677;SDS011;23517;50.390;8.616;2023-07-13T01:45:45;6.88;;;1.20;;
37677;SDS011;23517;50.390;8.616;2023-07-13T01:48:12;3.38;;;0.85;;
37677;SDS011;23517;50.390;8.616;2023-07-13T01:50:39;8.25;;;0.90;;
37677;SDS011;23517;50.390;8.616;2023-07-13T01:53:06;2.83;;;0.98;;
37677;SDS011;23517;50.390;8.616;2023-07-13T01:55:33;5.05;;;0.98;;
37677;SDS011;23517;50.390;8.616;2023-07-13T01:58:02;5.07;;;1.05;;
37677;SDS011;23517;50.390;8.616;2023-07-13T02:00:30;3.42;;;1.00;;
37677;SDS011;23517;50.390;8.616;2023-07-13T02:02:57;5.22;;;0.80;;
37677;SDS011;23517;50.390;8.616;2023-07-13T02:05:24;2.70;;;1.00;;
37677;SDS011;23517;50.390;8.616;2023-07-13T02:07:51;3.85;;;0.90;;
37677;SDS011;23517;50.390;8.616;2023-07-13T02:10:19;3.22;;;1.10;;
37677;SDS011;23517;50.390;8.616;2023-07-13T02:12:48;4.13;;;0.70;;
37677;SDS011;23517;50.390;8.616;2023-07-13T02:15:18;2.88;;;1.02;;
37677;SDS011;23517;50.390;8.616;2023-07-13T02:17:45;4.13;;;1.05;;
37677;SDS011;23517;50.390;8.616;2023-07-13T02:20:12;3.38;;;0.88;;
37677;SDS011;23517;50.390;8.616;2023-07-13T02:22:39;5.82;;;1.00;;
37677;SDS011;23517;50.390;8.616;2023-07-13T02:25:06;3.83;;;1.10;;
37677;SDS011;23517;50.390;8.616;2023-07-13T02:27:33;2.13;;;1.17;;
37677;SDS011;23517;50.390;8.616;2023-07-13T02:30:00;6.30;;;1.10;;
37677;SDS011;23517;50.390;8.616;2023-07-13T02:32:27;4.47;;;1.00;;
37677;SDS011;23517;50.390;8.616;2023-07-13T02:34:53;5.53;;;1.10;;
37677;SDS011;23517;50.390;8.616;2023-07-13T02:37:20;4.03;;;1.25;;
37677;SDS011;23517;50.390;8.616;2023-07-13T02:39:47;4.68;;;1.23;;
37677;SDS011;23517;50.390;8.616;2023-07-13T02:42:14;3.17;;;0.95;;
37677;SDS011;23517;50.390;8.616;2023-07-13T02:44:41;2.20;;;0.75;;
37677;SDS011;23517;50.390;8.616;2023-07-13T02:47:09;5.80;;;0.80;;
37677;SDS011;23517;50.390;8.616;2023-07-13T02:49:36;4.97;;;1.42;;
37677;SDS011;23517;50.390;8.616;2023-07-13T02:52:03;6.97;;;1.17;;
37677;SDS011;23517;50.390;8.616;2023-07-13T02:54:30;6.70;;;0.90;;
37677;SDS011;23517;50.390;8.616;2023-07-13T02:56:57;2.88;;;0.90;;
37677;SDS011;23517;50.390;8.616;2023-07-13T02:59:24;5.97;;;1.13;;
37677;SDS011;23517;50.390;8.616;2023-07-13T03:01:50;5.85;;;1.63;;
37677;SDS011;23517;50.390;8.616;2023-07-13T03:04:17;3.35;;;0.90;;
37677;SDS011;23517;50.390;8.616;2023-07-13T03:06:45;4.75;;;1.15;;
37677;SDS011;23517;50.390;8.616;2023-07-13T03:09:13;3.03;;;0.80;;
37677;SDS011;23517;50.390;8.616;2023-07-13T03:11:43;6.88;;;1.20;;
37677;SDS011;23517;50.390;8.616;2023-07-13T03:14:09;3.60;;;1.25;;
37677;SDS011;23517;50.390;8.616;2023-07-13T03:16:36;6.00;;;1.15;;
37677;SDS011;23517;50.390;8.616;2023-07-13T03:19:03;2.67;;;0.90;;
37677;SDS011;23517;50.390;8.616;2023-07-13T03:21:30;6.43;;;1.00;;
37677;SDS011;23517;50.390;8.616;2023-07-13T03:23:56;4.88;;;1.08;;
37677;SDS011;23517;50.390;8.616;2023-07-13T03:26:23;3.35;;;0.98;;
37677;SDS011;23517;50.390;8.616;2023-07-13T03:28:50;6.28;;;1.13;;
37677;SDS011;23517;50.390;8.616;2023-07-13T03:31:20;8.43;;;1.10;;
37677;SDS011;23517;50.390;8.616;2023-07-13T03:33:54;10.07;;;1.45;;
37677;SDS011;23517;50.390;8.616;2023-07-13T03:36:24;2.92;;;0.93;;
37677;SDS011;23517;50.390;8.616;2023-07-13T03:38:55;5.55;;;1.20;;
37677;SDS011;23517;50.390;8.616;2023-07-13T03:41:25;3.78;;;0.82;;
37677;SDS011;23517;50.390;8.616;2023-07-13T03:43:52;5.25;;;0.98;;
37677;SDS011;23517;50.390;8.616;2023-07-13T03:46:19;8.25;;;1.20;;
37677;SDS011;23517;50.390;8.616;2023-07-13T03:48:46;2.40;;;1.00;;
37677;SDS011;23517;50.390;8.616;2023-07-13T03:51:14;7.45;;;1.20;;
37677;SDS011;23517;50.390;8.616;2023-07-13T03:53:43;4.53;;;0.82;;
37677;SDS011;23517;50.390;8.616;2023-07-13T03:56:12;6.18;;;1.10;;
37677;SDS011;23517;50.390;8.616;2023-07-13T03:58:43;5.47;;;1.25;;
37677;SDS011;23517;50.390;8.616;2023-07-13T04:01:12;4.97;;;1.10;;
37677;SDS011;23517;50.390;8.616;2023-07-13T04:03:42;4.95;;;0.95;;
37677;SDS011;23517;50.390;8.616;2023-07-13T04:06:15;2.80;;;0.88;;
37677;SDS011;23517;50.390;8.616;2023-07-13T04:08:53;4.47;;;0.90;;
37677;SDS011;23517;50.390;8.616;2023-07-13T04:11:23;6.65;;;0.95;;
37677;SDS011;23517;50.390;8.616;2023-07-13T04:13:53;4.95;;;1.27;;
37677;SDS011;23517;50.390;8.616;2023-07-13T04:16:21;4.50;;;1.10;;
37677;SDS011;23517;50.390;8.616;2023-07-13T04:18:48;3.42;;;0.95;;
37677;SDS011;23517;50.390;8.616;2023-07-13T04:21:15;3.92;;;1.30;;
37677;SDS011;23517;50.390;8.616;2023-07-13T04:23:42;3.92;;;1.10;;
37677;SDS011;23517;50.390;8.616;2023-07-13T04:26:10;9.32;;;1.10;;
37677;SDS011;23517;50.390;8.616;2023-07-13T04:28:37;6.03;;;0.95;;
37677;SDS011;23517;50.390;8.616;2023-07-13T04:31:03;4.20;;;1.08;;
37677;SDS011;23517;50.390;8.616;2023-07-13T04:33:30;5.90;;;1.10;;
37677;SDS011;23517;50.390;8.616;2023-07-13T04:35:57;2.78;;;1.27;;
37677;SDS011;23517;50.390;8.616;2023-07-13T04:38:26;7.72;;;1.20;;
37677;SDS011;23517;50.390;8.616;2023-07-13T04:40:56;3.35;;;1.02;;
37677;SDS011;23517;50.390;8.616;2023-07-13T04:43:27;3.58;;;0.98;;
37677;SDS011;23517;50.390;8.616;2023-07-13T04:45:55;3.45;;;0.98;;
37677;SDS011;23517;50.390;8.616;2023-07-13T04:48:23;2.40;;;0.80;;
37677;SDS011;23517;50.390;8.616;2023-07-13T04:50:54;4.53;;;1.08;;
37677;SDS011;23517;50.390;8.616;2023-07-13T04:53:22;6.68;;;0.90;;
37677;SDS011;23517;50.390;8.616;2023-07-13T04:55:50;1.67;;;0.70;;
37677;SDS011;23517;50.390;8.616;2023-07-13T04:58:16;1.67;;;0.60;;
37677;SDS011;23517;50.390;8.616;2023-07-13T05:00:43;3.88;;;0.93;;
37677;SDS011;23517;50.390;8.616;2023-07-13T05:03:10;3.17;;;1.00;;
37677;SDS011;23517;50.390;8.616;2023-07-13T05:05:37;3.90;;;0.68;;
37677;SDS011;23517;50.390;8.616;2023-07-13T05:08:03;3.15;;;0.80;;
37677;SDS011;23517;50.390;8.616;2023-07-13T05:10:30;5.45;;;1.00;;
37677;SDS011;23517;50.390;8.616;2023-07-13T05:12:57;2.30;;;0.70;;
37677;SDS011;23517;50.390;8.616;2023-07-13T05:15:25;7.88;;;1.33;;
37677;SDS011;23517;50.390;8.616;2023-07-13T05:17:52;2.65;;;0.80;;
37677;SDS011;23517;50.390;8.616;2023-07-13T05:20:19;4.45;;;0.88;;
37677;SDS011;23517;50.390;8.616;2023-07-13T05:22:46;7.50;;;1.20;;
37677;SDS011;23517;50.390;8.616;2023-07-13T05:25:13;3.25;;;0.82;;
37677;SDS011;23517;50.390;8.616;2023-07-13T05:27:40;3.63;;;0.90;;
37677;SDS011;23517;50.390;8.616;2023-07-13T05:30:07;7.68;;;1.33;;
37677;SDS011;23517;50.390;8.616;2023-07-13T05:32:37;4.18;;;1.00;;
37677;SDS011;23517;50.390;8.616;2023-07-13T05:35:04;6.28;;;0.80;;
37677;SDS011;23517;50.390;8.616;2023-07-13T05:37:32;1.92;;;0.77;;
37677;SDS011;23517;50.390;8.616;2023-07-13T05:39:59;4.65;;;0.70;;
37677;SDS011;23517;50.390;8.616;2023-07-13T05:42:26;4.43;;;0.90;;
37677;SDS011;23517;50.390;8.616;2023-07-13T05:44:55;1.55;;;0.70;;
37677;SDS011;23517;50.390;8.616;2023-07-13T05:47:22;7.75;;;0.75;;
37677;SDS011;23517;50.390;8.616;2023-07-13T05:49:48;1.35;;;0.60;;
37677;SDS011;23517;50.390;8.616;2023-07-13T05:52:15;3.65;;;1.00;;
37677;SDS011;23517;50.390;8.616;2023-07-13T05:54:42;4.63;;;1.00;;
37677;SDS011;23517;50.390;8.616;2023-07-13T05:57:08;1.80;;;0.60;;
37677;SDS011;23517;50.390;8.616;2023-07-13T05:59:35;1.88;;;0.60;;
37677;SDS011;23517;50.390;8.616;2023-07-13T06:02:03;2.53;;;0.60;;
37677;SDS011;23517;50.390;8.616;2023-07-13T06:04:30;2.83;;;0.80;;
37677;SDS011;23517;50.390;8.616;2023-07-13T06:06:56;5.18;;;0.90;;
37677;SDS011;23517;50.390;8.616;2023-07-13T06:09:23;2.70;;;0.60;;
37677;SDS011;23517;50.390;8.616;2023-07-13T06:11:50;2.97;;;1.10;;
37677;SDS011;23517;50.390;8.616;2023-07-13T06:14:17;2.22;;;0.80;;
37677;SDS011;23517;50.390;8.616;2023-07-13T06:16:43;2.42;;;0.70;;
37677;SDS011;23517;50.390;8.616;2023-07-13T06:19:10;1.50;;;0.60;;
37677;SDS011;23517;50.390;8.616;2023-07-13T06:21:37;2.55;;;0.60;;
37677;SDS011;23517;50.390;8.616;2023-07-13T06:24:03;6.10;;;0.77;;
37677;SDS011;23517;50.390;8.616;2023-07-13T06:26:30;1.38;;;0.60;;
37677;SDS011;23517;50.390;8.616;2023-07-13T06:28:58;2.45;;;0.80;;
37677;SDS011;23517;50.390;8.616;2023-07-13T06:31:24;1.58;;;0.52;;
37677;SDS011;23517;50.390;8.616;2023-07-13T06:33:51;1.73;;;0.70;;
37677;SDS011;23517;50.390;8.616;2023-07-13T06:36:18;2.92;;;0.75;;
37677;SDS011;23517;50.390;8.616;2023-07-13T06:38:45;2.38;;;0.60;;
37677;SDS011;23517;50.390;8.616;2023-07-13T06:41:11;3.47;;;0.68;;
37677;SDS011;23517;50.390;8.616;2023-07-13T06:43:38;5.47;;;0.57;;
37677;SDS011;23517;50.390;8.616;2023-07-13T06:46:06;2.33;;;0.60;;
37677;SDS011;23517;50.390;8.616;2023-07-13T06:48:33;2.10;;;0.60;;
37677;SDS011;23517;50.390;8.616;2023-07-13T06:51:01;3.17;;;0.70;;
37677;SDS011;23517;50.390;8.616;2023-07-13T06:53:29;3.00;;;0.70;;
37677;SDS011;23517;50.390;8.616;2023-07-13T06:55:55;3.42;;;0.82;;
37677;SDS011;23517;50.390;8.616;2023-07-13T06:58:22;2.53;;;0.75;;
37677;SDS011;23517;50.390;8.616;2023-07-13T07:00:52;1.48;;;0.60;;
37677;SDS011;23517;50.390;8.616;2023-07-13T07:03:19;2.17;;;0.60;;
37677;SDS011;23517;50.390;8.616;2023-07-13T07:05:46;0.93;;;0.40;;
37677;SDS011;23517;50.390;8.616;2023-07-13T07:08:13;1.63;;;0.50;;
37677;SDS011;23517;50.390;8.616;2023-07-13T07:10:40;2.30;;;0.60;;
37677;SDS011;23517;50.390;8.616;2023-07-13T07:13:08;1.77;;;0.50;;
37677;SDS011;23517;50.390;8.616;2023-07-13T07:15:35;1.70;;;0.60;;
37677;SDS011;23517;50.390;8.616;2023-07-13T07:18:02;5.10;;;0.55;;
37677;SDS011;23517;50.390;8.616;2023-07-13T07:20:29;4.35;;;0.95;;
37677;SDS011;23517;50.390;8.616;2023-07-13T07:22:56;3.00;;;0.50;;
37677;SDS011;23517;50.390;8.616;2023-07-13T07:25:23;2.15;;;0.43;;
37677;SDS011;23517;50.390;8.616;2023-07-13T07:27:50;0.98;;;0.60;;
37677;SDS011;23517;50.390;8.616;2023-07-13T07:30:19;1.48;;;0.50;;
37677;SDS011;23517;50.390;8.616;2023-07-13T07:32:49;1.75;;;0.82;;
37677;SDS011;23517;50.390;8.616;2023-07-13T07:35:19;2.72;;;0.68;;
37677;SDS011;23517;50.390;8.616;2023-07-13T07:37:46;1.27;;;0.40;;
37677;SDS011;23517;50.390;8.616;2023-07-13T07:40:16;3.35;;;0.63;;
37677;SDS011;23517;50.390;8.616;2023-07-13T07:42:47;3.53;;;0.70;;
37677;SDS011;23517;50.390;8.616;2023-07-13T07:45:14;1.92;;;0.60;;
37677;SDS011;23517;50.390;8.616;2023-07-13T07:47:41;2.35;;;0.57;;
37677;SDS011;23517;50.390;8.616;2023-07-13T07:50:08;1.90;;;0.38;;
37677;SDS011;23517;50.390;8.616;2023-07-13T07:52:35;1.73;;;0.35;;
37677;SDS011;23517;50.390;8.616;2023-07-13T07:55:03;2.72;;;0.50;;
37677;SDS011;23517;50.390;8.616;2023-07-13T07:57:35;1.25;;;0.60;;
37677;SDS011;23517;50.390;8.616;2023-07-13T08:00:05;1.70;;;0.65;;
37677;SDS011;23517;50.390;8.616;2023-07-13T08:02:35;3.45;;;0.50;;
37677;SDS011;23517;50.390;8.616;2023-07-13T08:05:05;2.97;;;0.40;;
37677;SDS011;23517;50.390;8.616;2023-07-13T08:07:36;1.17;;;0.50;;
37677;SDS011;23517;50.390;8.616;2023-07-13T08:10:05;2.22;;;0.50;;
37677;SDS011;23517;50.390;8.616;2023-07-13T08:12:36;1.25;;;0.50;;
37677;SDS011;23517;50.390;8.616;2023-07-13T08:15:09;1.35;;;0.60;;
37677;SDS011;23517;50.390;8.616;2023-07-13T08:17:38;1.58;;;0.47;;
37677;SDS011;23517;50.390;8.616;2023-07-13T08:20:05;1.10;;;0.40;;
37677;SDS011;23517;50.390;8.616;2023-07-13T08:22:33;3.90;;;0.60;;
37677;SDS011;23517;50.390;8.616;2023-07-13T08:24:59;2.25;;;0.52;;
37677;SDS011;23517;50.390;8.616;2023-07-13T08:27:26;2.03;;;0.60;;
37677;SDS011;23517;50.390;8.616;2023-07-13T08:29:54;3.05;;;0.63;;
37677;SDS011;23517;50.390;8.616;2023-07-13T08:32:21;1.35;;;0.40;;
37677;SDS011;23517;50.390;8.616;2023-07-13T08:34:49;2.67;;;0.50;;
37677;SDS011;23517;50.390;8.616;2023-07-13T08:37:16;2.33;;;0.43;;
37677;SDS011;23517;50.390;8.616;2023-07-13T08:39:44;2.20;;;0.50;;
37677;SDS011;23517;50.390;8.616;2023-07-13T08:44:48;0.95;;;0.50;;
37677;SDS011;23517;50.390;8.616;2023-07-13T08:47:47;1.55;;;0.43;;
37677;SDS011;23517;50.390;8.616;2023-07-13T08:50:32;1.38;;;0.40;;
37677;SDS011;23517;50.390;8.616;2023-07-13T08:53:37;0.65;;;0.40;;
37677;SDS011;23517;50.390;8.616;2023-07-13T08:56:24;1.35;;;0.57;;
37677;SDS011;23517;50.390;8.616;2023-07-13T08:58:55;1.48;;;0.60;;
37677;SDS011;23517;50.390;8.616;2023-07-13T09:01:30;1.25;;;0.40;;
37677;SDS011;23517;50.390;8.616;2023-07-13T09:04:15;1.50;;;0.30;;
37677;SDS011;23517;50.390;8.616;2023-07-13T09:06:55;3.70;;;0.50;;
37677;SDS011;23517;50.390;8.616;2023-07-13T09:09:34;1.67;;;0.28;;
37677;SDS011;23517;50.390;8.616;2023-07-13T09:12:25;1.05;;;0.45;;
37677;SDS011;23517;50.390;8.616;2023-07-13T09:15:21;1.40;;;0.50;;
37677;SDS011;23517;50.390;8.616;2023-07-13T09:17:52;1.30;;;0.30;;
37677;SDS011;23517;50.390;8.616;2023-07-13T09:20:32;0.60;;;0.35;;
37677;SDS011;23517;50.390;8.616;2023-07-13T09:23:04;2.97;;;0.60;;
37677;SDS011;23517;50.390;8.616;2023-07-13T09:25:39;1.30;;;0.60;;
37677;SDS011;23517;50.390;8.616;2023-07-13T09:28:15;2.50;;;0.60;;
37677;SDS011;23517;50.390;8.616;2023-07-13T09:31:01;1.80;;;0.60;;
37677;SDS011;23517;50.390;8.616;2023-07-13T09:34:04;2.50;;;0.50;;
37677;SDS011;23517;50.390;8.616;2023-07-13T09:36:40;0.52;;;0.40;;
37677;SDS011;23517;50.390;8.616;2023-07-13T09:41:39;3.58;;;0.50;;
37677;SDS011;23517;50.390;8.616;2023-07-13T09:44:28;1.27;;;0.50;;
37677;SDS011;23517;50.390;8.616;2023-07-13T09:47:12;1.80;;;0.60;;
37677;SDS011;23517;50.390;8.616;2023-07-13T09:50:10;0.75;;;0.30;;
37677;SDS011;23517;50.390;8.616;2023-07-13T09:52:45;1.95;;;0.45;;
37677;SDS011;23517;50.390;8.616;2023-07-13T09:55:24;2.88;;;0.63;;
37677;SDS011;23517;50.390;8.616;2023-07-13T09:57:57;0.77;;;0.30;;
37677;SDS011;23517;50.390;8.616;2023-07-13T10:00:42;0.70;;;0.47;;
37677;SDS011;23517;50.390;8.616;2023-07-13T10:03:16;0.98;;;0.50;;
37677;SDS011;23517;50.390;8.616;2023-07-13T10:05:47;1.67;;;0.50;;
37677;SDS011;23517;50.390;8.616;2023-07-13T10:08:17;0.93;;;0.60;;
37677;SDS011;23517;50.390;8.616;2023-07-13T10:10:51;1.15;;;0.60;;
37677;SDS011;23517;50.390;8.616;2023-07-13T10:13:36;1.05;;;0.50;;
37677;SDS011;23517;50.390;8.616;2023-07-13T10:16:09;0.70;;;0.45;;
37677;SDS011;23517;50.390;8.616;2023-07-13T10:18:42;1.90;;;0.50;;
37677;SDS011;23517;50.390;8.616;2023-07-13T10:21:17;2.15;;;0.40;;
37677;SDS011;23517;50.390;8.616;2023-07-13T10:24:18;1.58;;;0.50;;
37677;SDS011;23517;50.390;8.616;2023-07-13T10:29:44;2.28;;;0.70;;
37677;SDS011;23517;50.390;8.616;2023-07-13T10:32:16;1.63;;;0.60;;
37677;SDS011;23517;50.390;8.616;2023-07-13T10:34:48;2.70;;;0.60;;
37677;SDS011;23517;50.390;8.616;2023-07-13T10:37:27;2.08;;;0.70;;
37677;SDS011;23517;50.390;8.616;2023-07-13T10:40:39;3.65;;;0.63;;
37677;SDS011;23517;50.390;8.616;2023-07-13T10:43:20;2.42;;;0.60;;
37677;SDS011;23517;50.390;8.616;2023-07-13T10:45:54;0.88;;;0.50;;
37677;SDS011;23517;50.390;8.616;2023-07-13T10:48:22;2.25;;;0.85;;
37677;SDS011;23517;50.390;8.616;2023-07-13T10:50:50;4.10;;;0.95;;
37677;SDS011;23517;50.390;8.616;2023-07-13T10:53:29;3.80;;;0.60;;
37677;SDS011;23517;50.390;8.616;2023-07-13T10:55:59;1.48;;;0.75;;
37677;SDS011;23517;50.390;8.616;2023-07-13T10:58:36;2.45;;;0.55;;
37677;SDS011;23517;50.390;8.616;2023-07-13T11:01:12;1.35;;;0.75;;
37677;SDS011;23517;50.390;8.616;2023-07-13T11:06:34;4.25;;;0.90;;
37677;SDS011;23517;50.390;8.616;2023-07-13T11:12:07;0.98;;;0.47;;
37677;SDS011;23517;50.390;8.616;2023-07-13T11:20:34;1.85;;;0.70;;
37677;SDS011;23517;50.390;8.616;2023-07-13T11:25:39;5.30;;;0.80;;
37677;SDS011;23517;50.390;8.616;2023-07-13T11:30:49;2.45;;;0.80;;
37677;SDS011;23517;50.390;8.616;2023-07-13T11:33:22;2.35;;;0.60;;
37677;SDS011;23517;50.390;8.616;2023-07-13T11:36:16;3.40;;;0.70;;
37677;SDS011;23517;50.390;8.616;2023-07-13T11:41:58;1.98;;;0.65;;
37677;SDS011;23517;50.390;8.616;2023-07-13T11:44:30;5.50;;;0.70;;
37677;SDS011;23517;50.390;8.616;2023-07-13T11:47:07;3.92;;;0.85;;
37677;SDS011;23517;50.390;8.616;2023-07-13T11:49:45;4.03;;;0.80;;
37677;SDS011;23517;50.390;8.616;2023-07-13T11:52:17;1.48;;;0.60;;
37677;SDS011;23517;50.390;8.616;2023-07-13T11:55:00;1.85;;;0.60;;
37677;SDS011;23517;50.390;8.616;2023-07-13T11:57:29;1.48;;;0.60;;
37677;SDS011;23517;50.390;8.616;2023-07-13T12:00:15;1.85;;;0.50;;
37677;SDS011;23517;50.390;8.616;2023-07-13T12:02:47;2.10;;;0.70;;
37677;SDS011;23517;50.390;8.616;2023-07-13T12:05:18;3.22;;;0.77;;
37677;SDS011;23517;50.390;8.616;2023-07-13T12:07:46;1.23;;;0.60;;
37677;SDS011;23517;50.390;8.616;2023-07-13T12:10:19;1.38;;;0.80;;
37677;SDS011;23517;50.390;8.616;2023-07-13T12:13:00;3.55;;;0.60;;
37677;SDS011;23517;50.390;8.616;2023-07-13T12:15:40;3.97;;;0.82;;
37677;SDS011;23517;50.390;8.616;2023-07-13T12:18:14;2.45;;;0.63;;
37677;SDS011;23517;50.390;8.616;2023-07-13T12:20:46;2.92;;;0.70;;
37677;SDS011;23517;50.390;8.616;2023-07-13T12:23:23;1.48;;;0.60;;
37677;SDS011;23517;50.390;8.616;2023-07-13T12:25:54;5.50;;;0.70;;
37677;SDS011;23517;50.390;8.616;2023-07-13T12:31:33;1.70;;;0.80;;
37677;SDS011;23517;50.390;8.616;2023-07-13T12:34:06;3.03;;;0.80;;
37677;SDS011;23517;50.390;8.616;2023-07-13T12:36:36;0.68;;;0.60;;
37677;SDS011;23517;50.390;8.616;2023-07-13T12:39:19;3.55;;;0.70;;
37677;SDS011;23517;50.390;8.616;2023-07-13T12:42:24;2.55;;;0.57;;
37677;SDS011;23517;50.390;8.616;2023-07-13T12:44:56;3.55;;;0.82;;
37677;SDS011;23517;50.390;8.616;2023-07-13T12:47:27;3.25;;;0.80;;
37677;SDS011;23517;50.390;8.616;2023-07-13T12:49:56;3.03;;;0.70;;
37677;SDS011;23517;50.390;8.616;2023-07-13T12:52:34;3.13;;;0.85;;
37677;SDS011;23517;50.390;8.616;2023-07-13T12:55:06;4.03;;;0.75;;
37677;SDS011;23517;50.390;8.616;2023-07-13T12:57:41;0.55;;;0.52;;
37677;SDS011;23517;50.390;8.616;2023-07-13T13:00:25;3.13;;;0.90;;
37677;SDS011;23517;50.390;8.616;2023-07-13T13:03:04;3.00;;;0.70;;
37677;SDS011;23517;50.390;8.616;2023-07-13T13:05:59;3.67;;;0.95;;
37677;SDS011;23517;50.390;8.616;2023-07-13T13:08:47;2.97;;;0.82;;
37677;SDS011;23517;50.390;8.616;2023-07-13T13:11:16;2.58;;;0.73;;
37677;SDS011;23517;50.390;8.616;2023-07-13T13:13:46;4.00;;;0.80;;
37677;SDS011;23517;50.390;8.616;2023-07-13T13:16:26;4.90;;;0.60;;
37677;SDS011;23517;50.390;8.616;2023-07-13T13:19:12;2.10;;;0.90;;
37677;SDS011;23517;50.390;8.616;2023-07-13T13:21:48;2.08;;;0.90;;
37677;SDS011;23517;50.390;8.616;2023-07-13T13:24:19;1.67;;;0.73;;
37677;SDS011;23517;50.390;8.616;2023-07-13T13:26:49;1.95;;;0.75;;
37677;SDS011;23517;50.390;8.616;2023-07-13T13:29:21;2.33;;;0.60;;
37677;SDS011;23517;50.390;8.616;2023-07-13T13:31:51;2.20;;;0.98;;
37677;SDS011;23517;50.390;8.616;2023-07-13T13:34:19;1.05;;;0.68;;
37677;SDS011;23517;50.390;8.616;2023-07-13T13:36:51;2.10;;;0.70;;
37677;SDS011;23517;50.390;8.616;2023-07-13T13:39:24;3.88;;;0.80;;
37677;SDS011;23517;50.390;8.616;2023-07-13T13:41:57;4.07;;;0.90;;
37677;SDS011;23517;50.390;8.616;2023-07-13T13:44:24;1.67;;;1.02;;
37677;SDS011;23517;50.390;8.616;2023-07-13T13:46:53;2.80;;;0.82;;
37677;SDS011;23517;50.390;8.616;2023-07-13T13:49:22;2.33;;;0.80;;
37677;SDS011;23517;50.390;8.616;2023-07-13T13:51:52;2.20;;;0.70;;
37677;SDS011;23517;50.390;8.616;2023-07-13T13:54:20;4.43;;;0.80;;
37677;SDS011;23517;50.390;8.616;2023-07-13T13:56:50;1.95;;;0.70;;
37677;SDS011;23517;50.390;8.616;2023-07-13T13:59:18;1.30;;;1.00;;
37677;SDS011;23517;50.390;8.616;2023-07-13T14:01:45;2.42;;;0.90;;
37677;SDS011;23517;50.390;8.616;2023-07-13T14:04:18;2.97;;;0.80;;
37677;SDS011;23517;50.390;8.616;2023-07-13T14:06:47;3.58;;;1.00;;
37677;SDS011;23517;50.390;8.616;2023-07-13T14:09:16;1.67;;;0.70;;
37677;SDS011;23517;50.390;8.616;2023-07-13T14:11:45;3.45;;;0.70;;
37677;SDS011;23517;50.390;8.616;2023-07-13T14:14:20;3.90;;;0.80;;
37677;SDS011;23517;50.390;8.616;2023-07-13T14:16:49;3.00;;;0.85;;
37677;SDS011;23517;50.390;8.616;2023-07-13T14:19:22;4.18;;;1.20;;
37677;SDS011;23517;50.390;8.616;2023-07-13T14:21:49;3.28;;;0.90;;
37677;SDS011;23517;50.390;8.616;2023-07-13T14:24:19;1.92;;;0.98;;
37677;SDS011;23517;50.390;8.616;2023-07-13T14:26:45;1.95;;;0.85;;
37677;SDS011;23517;50.390;8.616;2023-07-13T14:29:14;3.03;;;0.95;;
37677;SDS011;23517;50.390;8.616;2023-07-13T14:31:47;1.95;;;0.68;;
37677;SDS011;23517;50.390;8.616;2023-07-13T14:34:14;1.55;;;0.95;;
37677;SDS011;23517;50.390;8.616;2023-07-13T14:36:42;2.55;;;0.80;;
37677;SDS011;23517;50.390;8.616;2023-07-13T14:39:15;1.88;;;0.75;;
37677;SDS011;23517;50.390;8.616;2023-07-13T14:41:45;2.13;;;0.80;;
37677;SDS011;23517;50.390;8.616;2023-07-13T14:44:16;1.30;;;0.55;;
37677;SDS011;23517;50.390;8.616;2023-07-13T14:46:46;2.90;;;0.60;;
37677;SDS011;23517;50.390;8.616;2023-07-13T14:49:23;1.75;;;0.80;;
37677;SDS011;23517;50.390;8.616;2023-07-13T14:52:12;4.15;;;0.80;;
37677;SDS011;23517;50.390;8.616;2023-07-13T14:54:44;1.30;;;0.70;;
37677;SDS011;23517;50.390;8.616;2023-07-13T14:57:19;2.10;;;0.70;;
37677;SDS011;23517;50.390;8.616;2023-07-13T14:59:47;4.40;;;0.85;;
37677;SDS011;23517;50.390;8.616;2023-07-13T15:02:16;2.72;;;0.85;;
37677;SDS011;23517;50.390;8.616;2023-07-13T15:05:01;2.25;;;0.63;;
37677;SDS011;23517;50.390;8.616;2023-07-13T15:07:37;3.85;;;0.80;;
37677;SDS011;23517;50.390;8.616;2023-07-13T15:10:11;3.85;;;0.70;;
37677;SDS011;23517;50.390;8.616;2023-07-13T15:12:44;2.88;;;0.80;;
37677;SDS011;23517;50.390;8.616;2023-07-13T15:15:12;7.22;;;1.15;;
37677;SDS011;23517;50.390;8.616;2023-07-13T15:17:40;4.18;;;1.00;;
37677;SDS011;23517;50.390;8.616;2023-07-13T15:20:15;3.10;;;0.90;;
37677;SDS011;23517;50.390;8.616;2023-07-13T15:22:59;3.13;;;0.88;;
37677;SDS011;23517;50.390;8.616;2023-07-13T15:25:28;2.65;;;0.82;;
37677;SDS011;23517;50.390;8.616;2023-07-13T15:27:58;3.33;;;0.90;;
37677;SDS011;23517;50.390;8.616;2023-07-13T15:30:28;1.88;;;0.68;;
37677;SDS011;23517;50.390;8.616;2023-07-13T15:32:58;2.03;;;0.70;;
37677;SDS011;23517;50.390;8.616;2023-07-13T15:35:35;2.28;;;0.80;;
37677;SDS011;23517;50.390;8.616;2023-07-13T15:38:12;1.55;;;0.80;;
37677;SDS011;23517;50.390;8.616;2023-07-13T15:40:59;3.70;;;0.77;;
37677;SDS011;23517;50.390;8.616;2023-07-13T15:43:26;5.00;;;0.70;;